Caraquet, Canada
Current Conditions -  °F | °C
As of 12:00 AM on Thursday 23 Oct 2014 (Local Time) from CZBF Reporting Station
Broken Clouds Broken Clouds  
Wind Chill: 37°   Ceiling: 1200
Heat Index: 43°   Visibility: 15mi
Dew Point: 37°   Wind: 9mph
Humidity: 81%   Direction: 60°ENE
Pressure: 30.41"   Gusts: NA
Location:  47.78°N, 64.95°W
Report Text: CZBF 230300Z 06008KT 15SM BKN012 06/03 A3041 RMK SC7 SLP300
Loading
Personal Weather Stations






























Interactive Weather Map
Tropical Storm Tracking
New forecast layout! Learn more

10-Day Weather Forecast

Advertisements
Track Severe Weather on mobile